Time;durP1;ratioP1;P1;durP2;ratioP2;P2;SDS_P1;SDS_P2;PMS_P1;PMS_P2;Temp;Humidity;BMP_temperature;BMP_pressure;BME280_temperature;BME280_humidity;BME280_pressure;Samples;Min_cycle;Max_cycle;Signal;HPM_P1;HPM_P2
2022/06/17 00:02:04;;;;;;;5.85;4.43;;;;;;;;;;5014075;28;20064;-71
2022/06/17 00:04:29;;;;;;;5.97;4.88;;;;;;;;;;5010824;28;20528;-65
2022/06/17 00:06:56;;;;;;;4.85;4.43;;;;;;;;;;5009191;28;20080;-66
2022/06/17 00:09:22;;;;;;;4.85;4.35;;;;;;;;;;5014154;28;20022;-67
2022/06/17 00:11:48;;;;;;;5.40;4.90;;;;;;;;;;5008823;28;20099;-67
2022/06/17 00:14:16;;;;;;;4.78;4.38;;;;;;;;;;5014165;28;20437;-66
2022/06/17 00:16:42;;;;;;;11.73;5.53;;;;;;;;;;5018431;28;20030;-65
2022/06/17 00:19:08;;;;;;;7.45;5.13;;;;;;;;;;5011286;28;20243;-68
2022/06/17 00:21:34;;;;;;;5.90;5.07;;;;;;;;;;5010772;28;20043;-67
2022/06/17 00:24:00;;;;;;;5.70;4.45;;;;;;;;;;5014362;28;20029;-66
2022/06/17 00:26:26;;;;;;;4.90;4.43;;;;;;;;;;5010011;28;20480;-65
2022/06/17 00:28:51;;;;;;;4.85;4.45;;;;;;;;;;5014620;28;20022;-68
2022/06/17 00:31:17;;;;;;;5.05;4.55;;;;;;;;;;5015162;28;20108;-65
2022/06/17 00:33:42;;;;;;;5.28;4.78;;;;;;;;;;5016684;28;20398;-66
2022/06/17 00:36:13;;;;;;;5.97;4.40;;;;;;;;;;5011854;28;20444;-66
2022/06/17 00:38:39;;;;;;;5.75;4.63;;;;;;;;;;5009484;28;20060;-67
2022/06/17 00:41:12;;;;;;;4.85;3.70;;;;;;;;;;5009588;28;20072;-72
2022/06/17 00:43:39;;;;;;;5.47;4.63;;;;;;;;;;5012231;28;20030;-65
2022/06/17 00:46:11;;;;;;;4.95;4.50;;;;;;;;;;5013458;28;20022;-72
2022/06/17 00:48:40;;;;;;;5.63;4.85;;;;;;;;;;5007225;28;20032;-69
2022/06/17 00:51:09;;;;;;;5.28;4.40;;;;;;;;;;5014697;28;20037;-65
2022/06/17 00:53:42;;;;;;;5.30;4.88;;;;;;;;;;5010537;28;20804;-69
2022/06/17 00:56:18;;;;;;;5.43;4.95;;;;;;;;;;5011184;28;20164;-67
2022/06/17 00:58:55;;;;;;;5.28;4.70;;;;;;;;;;5012187;28;20036;-67
2022/06/17 01:01:24;;;;;;;4.80;4.40;;;;;;;;;;5011112;28;20018;-65
2022/06/17 01:03:51;;;;;;;5.40;4.90;;;;;;;;;;5014767;28;20126;-65
2022/06/17 01:06:17;;;;;;;5.68;4.88;;;;;;;;;;5012902;28;20029;-69
2022/06/17 01:11:34;;;;;;;4.57;4.18;;;;;;;;;;5012033;28;20059;-69
2022/06/17 01:14:00;;;;;;;4.65;4.25;;;;;;;;;;5016184;28;20455;-66
2022/06/17 01:16:29;;;;;;;4.90;4.40;;;;;;;;;;5018552;28;20053;-66
2022/06/17 01:18:56;;;;;;;5.90;4.85;;;;;;;;;;5019821;28;20041;-66
2022/06/17 01:21:36;;;;;;;4.85;4.35;;;;;;;;;;5010528;28;20468;-66
2022/06/17 01:24:01;;;;;;;4.85;4.45;;;;;;;;;;5014452;28;20125;-70
2022/06/17 01:26:27;;;;;;;5.13;4.65;;;;;;;;;;5013395;28;20029;-70
2022/06/17 01:28:52;;;;;;;5.32;4.80;;;;;;;;;;5016613;28;20124;-65
2022/06/17 01:31:17;;;;;;;5.03;4.63;;;;;;;;;;5018899;28;20034;-67
2022/06/17 01:33:44;;;;;;;5.90;4.43;;;;;;;;;;5019169;28;20429;-66
2022/06/17 01:36:22;;;;;;;6.13;5.10;;;;;;;;;;5016892;28;20021;-66
2022/06/17 01:38:52;;;;;;;7.22;4.93;;;;;;;;;;5013249;28;20038;-71
2022/06/17 01:41:17;;;;;;;;;;;;;;;;;;5011662;28;20484;-67
2022/06/17 01:43:45;;;;;;;6.17;4.73;;;;;;;;;;5011458;28;20007;-66
2022/06/17 01:46:19;;;;;;;5.20;4.50;;;;;;;;;;5018500;28;20061;-65
2022/06/17 01:48:52;;;;;;;6.03;5.30;;;;;;;;;;5019237;28;20033;-70
2022/06/17 01:51:19;;;;;;;5.40;4.90;;;;;;;;;;5011595;28;20029;-66
2022/06/17 01:53:46;;;;;;;5.97;5.47;;;;;;;;;;5016724;28;20034;-66
2022/06/17 01:56:16;;;;;;;10.55;5.78;;;;;;;;;;5016439;28;20036;-71
2022/06/17 01:58:41;;;;;;;;;;;;;;;;;;5012082;28;20037;-65
2022/06/17 02:01:07;;;;;;;6.47;5.33;;;;;;;;;;5012494;28;19920;-70
2022/06/17 02:03:35;;;;;;;6.03;5.28;;;;;;;;;;5019874;28;20037;-68
2022/06/17 02:06:12;;;;;;;5.32;4.82;;;;;;;;;;5017695;28;20146;-70
2022/06/17 02:08:38;;;;;;;10.07;5.13;;;;;;;;;;5015405;28;20029;-67
2022/06/17 02:11:04;;;;;;;5.82;5.32;;;;;;;;;;5016257;28;20102;-67
2022/06/17 02:13:31;;;;;;;5.75;5.03;;;;;;;;;;5012320;28;20039;-73
2022/06/17 02:15:58;;;;;;;5.07;4.60;;;;;;;;;;5019045;28;20026;-66
2022/06/17 02:18:24;;;;;;;5.25;4.75;;;;;;;;;;5017817;28;20049;-65
2022/06/17 02:20:50;;;;;;;6.05;4.22;;;;;;;;;;5014982;28;20033;-70
2022/06/17 02:23:15;;;;;;;5.13;4.40;;;;;;;;;;5013228;28;20403;-66
2022/06/17 02:25:43;;;;;;;5.85;5.25;;;;;;;;;;5017657;28;20029;-65
2022/06/17 02:28:09;;;;;;;6.00;5.40;;;;;;;;;;5013772;28;20026;-72
2022/06/17 02:30:35;;;;;;;5.97;4.75;;;;;;;;;;5012364;28;20455;-69
2022/06/17 02:33:02;;;;;;;5.85;4.68;;;;;;;;;;5016595;28;20025;-68
2022/06/17 02:35:30;;;;;;;5.82;5.05;;;;;;;;;;5014140;28;20087;-65
2022/06/17 02:37:56;;;;;;;6.75;5.22;;;;;;;;;;5014791;28;20032;-67
2022/06/17 02:40:28;;;;;;;5.90;5.40;;;;;;;;;;5016634;28;20120;-68
2022/06/17 02:42:53;;;;;;;5.50;4.80;;;;;;;;;;5015113;28;20044;-68
2022/06/17 02:45:22;;;;;;;6.38;5.75;;;;;;;;;;5014018;28;20026;-67
2022/06/17 02:47:47;;;;;;;8.73;5.72;;;;;;;;;;5019432;28;20025;-69
2022/06/17 02:50:19;;;;;;;5.70;5.20;;;;;;;;;;5011555;28;20524;-68
2022/06/17 02:52:44;;;;;;;5.50;4.97;;;;;;;;;;5012397;28;20022;-66
2022/06/17 02:55:13;;;;;;;5.63;4.78;;;;;;;;;;5018218;28;20079;-68
2022/06/17 02:57:40;;;;;;;6.30;5.18;;;;;;;;;;5014202;28;20104;-68
2022/06/17 03:00:08;;;;;;;6.03;5.38;;;;;;;;;;5009351;28;20083;-67
2022/06/17 03:02:38;;;;;;;7.85;4.90;;;;;;;;;;5014749;28;20022;-67
2022/06/17 03:05:30;;;;;;;6.30;4.82;;;;;;;;;;5014150;28;20017;-67
2022/06/17 03:07:56;;;;;;;6.35;4.53;;;;;;;;;;5012299;28;20053;-68
2022/06/17 03:10:32;;;;;;;5.20;4.70;;;;;;;;;;5014756;28;20026;-67
2022/06/17 03:13:20;;;;;;;5.85;4.82;;;;;;;;;;5016000;28;20471;-66
2022/06/17 03:15:47;;;;;;;5.50;5.00;;;;;;;;;;5004611;28;20111;-68
2022/06/17 03:18:13;;;;;;;5.00;4.60;;;;;;;;;;5016646;28;20037;-65
2022/06/17 03:20:39;;;;;;;5.95;4.60;;;;;;;;;;5014213;28;24303;-68
2022/06/17 03:23:07;;;;;;;5.07;4.57;;;;;;;;;;5010537;28;20029;-70
2022/06/17 03:25:35;;;;;;;5.60;4.82;;;;;;;;;;5013137;28;20025;-70
2022/06/17 03:28:03;;;;;;;6.10;5.50;;;;;;;;;;5016078;28;20029;-68
2022/06/17 03:30:40;;;;;;;5.72;5.22;;;;;;;;;;5011414;28;20044;-67
2022/06/17 03:33:08;;;;;;;7.13;4.88;;;;;;;;;;5014860;28;20018;-68
2022/06/17 03:35:35;;;;;;;5.80;5.25;;;;;;;;;;5013053;28;20025;-67
2022/06/17 03:38:20;;;;;;;7.18;5.32;;;;;;;;;;5010854;28;20067;-66
2022/06/17 03:40:48;;;;;;;6.13;5.53;;;;;;;;;;5014662;28;20045;-68
2022/06/17 03:43:19;;;;;;;7.00;5.45;;;;;;;;;;5015911;28;20445;-69
2022/06/17 03:46:11;;;;;;;5.55;5.05;;;;;;;;;;5010229;28;20079;-66
2022/06/17 03:48:55;;;;;;;5.22;4.82;;;;;;;;;;5015749;28;20102;-66
2022/06/17 03:51:21;;;;;;;6.70;5.00;;;;;;;;;;5012252;28;20042;-72
2022/06/17 03:53:47;;;;;;;6.95;5.05;;;;;;;;;;5015854;28;20021;-66
2022/06/17 03:56:16;;;;;;;5.80;5.22;;;;;;;;;;5015207;28;20119;-66
2022/06/17 03:58:43;;;;;;;5.93;5.32;;;;;;;;;;5010130;28;20041;-73
2022/06/17 04:01:18;;;;;;;5.82;5.22;;;;;;;;;;5012875;28;20108;-67
2022/06/17 04:03:51;;;;;;;6.75;5.50;;;;;;;;;;5010203;28;20057;-67
2022/06/17 04:06:18;;;;;;;6.18;5.50;;;;;;;;;;5015170;28;20143;-66
2022/06/17 04:09:02;;;;;;;6.47;5.88;;;;;;;;;;5018697;28;20344;-67
2022/06/17 04:11:34;;;;;;;6.90;6.15;;;;;;;;;;5009667;28;20101;-68
2022/06/17 04:14:01;;;;;;;7.00;6.30;;;;;;;;;;5007829;28;20029;-67
2022/06/17 04:16:30;;;;;;;7.07;5.85;;;;;;;;;;5004734;28;20116;-68
2022/06/17 04:19:03;;;;;;;6.80;5.85;;;;;;;;;;5009517;28;20041;-68
2022/06/17 04:21:28;;;;;;;6.75;6.13;;;;;;;;;;5007163;28;20021;-67
2022/06/17 04:23:54;;;;;;;7.35;6.65;;;;;;;;;;5006982;28;20036;-73
2022/06/17 04:26:25;;;;;;;7.40;5.95;;;;;;;;;;5007096;28;20033;-67
2022/06/17 04:28:50;;;;;;;8.48;5.78;;;;;;;;;;5009944;28;20038;-66
2022/06/17 04:31:17;;;;;;;6.13;5.53;;;;;;;;;;5003339;28;20463;-70
2022/06/17 04:33:45;;;;;;;6.10;5.60;;;;;;;;;;5012964;28;21143;-67
2022/06/17 04:36:18;;;;;;;7.10;6.07;;;;;;;;;;5008686;28;20021;-69
2022/06/17 04:39:03;;;;;;;7.15;6.45;;;;;;;;;;5008068;28;20125;-70
2022/06/17 04:41:31;;;;;;;5.72;5.22;;;;;;;;;;5008526;28;20048;-66
2022/06/17 04:43:57;;;;;;;6.25;5.47;;;;;;;;;;5005768;28;20030;-73
2022/06/17 04:46:41;;;;;;;6.75;5.97;;;;;;;;;;5008914;28;20029;-68
2022/06/17 04:49:13;;;;;;;8.00;6.53;;;;;;;;;;5011080;28;20909;-70
2022/06/17 04:51:39;;;;;;;8.50;6.32;;;;;;;;;;5011901;28;20056;-69
2022/06/17 04:54:04;;;;;;;8.35;6.32;;;;;;;;;;5011777;28;20049;-69
2022/06/17 04:56:32;;;;;;;6.85;6.15;;;;;;;;;;5011415;28;20029;-69
2022/06/17 04:58:57;;;;;;;6.68;6.07;;;;;;;;;;5008705;28;20128;-70
2022/06/17 05:01:24;;;;;;;7.63;6.82;;;;;;;;;;5011732;28;20108;-72
2022/06/17 05:03:50;;;;;;;10.27;7.28;;;;;;;;;;5011522;28;20022;-70
2022/06/17 05:06:16;;;;;;;9.27;7.65;;;;;;;;;;5011343;28;23625;-70
2022/06/17 05:08:43;;;;;;;9.23;7.10;;;;;;;;;;5012082;28;20025;-69
2022/06/17 05:11:24;;;;;;;9.48;8.07;;;;;;;;;;5011253;28;20031;-74
2022/06/17 05:14:21;;;;;;;9.00;7.82;;;;;;;;;;5010967;28;20021;-68
2022/06/17 05:16:47;;;;;;;9.70;8.70;;;;;;;;;;4972536;28;20172;-76
2022/06/17 05:19:12;;;;;;;9.40;8.50;;;;;;;;;;5011702;28;20042;-73
2022/06/17 05:21:37;;;;;;;8.50;7.20;;;;;;;;;;5011390;28;20040;-76
2022/06/17 05:24:03;;;;;;;7.65;6.90;;;;;;;;;;5012001;28;20429;-74
2022/06/17 05:26:30;;;;;;;7.80;6.72;;;;;;;;;;5017416;28;20034;-69
2022/06/17 05:28:55;;;;;;;9.02;7.13;;;;;;;;;;5012783;28;20503;-70
2022/06/17 05:31:22;;;;;;;8.52;7.70;;;;;;;;;;5011751;28;20025;-68
2022/06/17 05:33:48;;;;;;;7.10;6.40;;;;;;;;;;5011634;28;20173;-71
2022/06/17 05:36:13;;;;;;;10.52;7.00;;;;;;;;;;5019428;28;20561;-67
2022/06/17 05:38:39;;;;;;;8.43;7.55;;;;;;;;;;5010471;28;20036;-77
2022/06/17 05:41:10;;;;;;;8.45;6.45;;;;;;;;;;5010136;28;20087;-69
2022/06/17 05:43:35;;;;;;;8.23;7.07;;;;;;;;;;5009734;28;20036;-67
2022/06/17 05:46:01;;;;;;;7.65;6.95;;;;;;;;;;5009098;28;20440;-68
2022/06/17 05:48:26;;;;;;;7.07;6.38;;;;;;;;;;5016199;28;20338;-65
2022/06/17 05:50:52;;;;;;;7.78;7.07;;;;;;;;;;5016599;28;20032;-67
2022/06/17 05:53:17;;;;;;;7.95;7.15;;;;;;;;;;5016290;28;20014;-68
2022/06/17 05:55:42;;;;;;;9.40;7.10;;;;;;;;;;5015772;28;20100;-69
2022/06/17 05:58:08;;;;;;;10.45;7.50;;;;;;;;;;5016491;28;20433;-67
2022/06/17 06:00:34;;;;;;;12.88;7.72;;;;;;;;;;5018850;28;20022;-71
2022/06/17 06:03:00;;;;;;;14.25;8.10;;;;;;;;;;5018394;28;20018;-68
2022/06/17 06:05:28;;;;;;;14.75;6.72;;;;;;;;;;5016868;28;20033;-72
2022/06/17 06:07:53;;;;;;;15.70;7.88;;;;;;;;;;5019246;28;20025;-69
2022/06/17 06:10:18;;;;;;;7.20;6.50;;;;;;;;;;5018007;28;20036;-69
2022/06/17 06:12:53;;;;;;;6.50;5.90;;;;;;;;;;5014694;28;20022;-69
2022/06/17 06:15:18;;;;;;;8.77;6.68;;;;;;;;;;5016375;28;20026;-68
2022/06/17 06:17:45;;;;;;;8.38;7.57;;;;;;;;;;5018878;28;20115;-69
2022/06/17 06:20:11;;;;;;;20.10;6.03;;;;;;;;;;5019081;28;20088;-69
2022/06/17 06:22:36;;;;;;;6.22;5.65;;;;;;;;;;5019572;28;20116;-68
2022/06/17 06:25:02;;;;;;;6.20;5.65;;;;;;;;;;5016931;28;20631;-73
2022/06/17 06:27:27;;;;;;;5.63;5.13;;;;;;;;;;5017211;28;20543;-68
2022/06/17 06:29:52;;;;;;;7.47;6.78;;;;;;;;;;5016872;28;20025;-69
2022/06/17 06:32:18;;;;;;;7.05;6.40;;;;;;;;;;5016283;28;20158;-68
2022/06/17 06:34:43;;;;;;;8.13;6.38;;;;;;;;;;5017742;28;20113;-69
2022/06/17 06:37:09;;;;;;;6.82;6.22;;;;;;;;;;5016842;28;20045;-74
2022/06/17 06:39:34;;;;;;;6.00;5.30;;;;;;;;;;5019687;28;20048;-69
2022/06/17 06:41:59;;;;;;;5.65;4.97;;;;;;;;;;5017246;28;20033;-68
2022/06/17 06:44:25;;;;;;;6.00;5.40;;;;;;;;;;5013364;28;20053;-70
2022/06/17 06:46:50;;;;;;;5.30;4.80;;;;;;;;;;5015322;28;20038;-68
2022/06/17 06:49:15;;;;;;;5.55;4.90;;;;;;;;;;5015867;28;20042;-70
2022/06/17 06:51:41;;;;;;;5.47;4.65;;;;;;;;;;5015611;28;20669;-69
2022/06/17 06:54:06;;;;;;;4.75;4.35;;;;;;;;;;5016774;28;20336;-68
2022/06/17 06:56:31;;;;;;;5.35;4.90;;;;;;;;;;5017350;28;20025;-69
2022/06/17 06:58:57;;;;;;;7.00;5.57;;;;;;;;;;5017145;28;20025;-68
2022/06/17 07:01:22;;;;;;;6.45;5.72;;;;;;;;;;5013837;28;20104;-73
2022/06/17 07:03:47;;;;;;;6.80;6.20;;;;;;;;;;5016512;28;20064;-71
2022/06/17 07:06:13;;;;;;;6.63;5.95;;;;;;;;;;5016934;28;20036;-72
2022/06/17 07:08:38;;;;;;;8.38;6.70;;;;;;;;;;5019476;28;20033;-72
2022/06/17 07:11:05;;;;;;;9.90;6.68;;;;;;;;;;5019549;28;20033;-70
2022/06/17 07:13:31;;;;;;;5.90;5.30;;;;;;;;;;5015659;28;20033;-70
2022/06/17 07:15:57;;;;;;;6.15;5.55;;;;;;;;;;5014685;28;20384;-68
2022/06/17 07:18:24;;;;;;;4.85;4.40;;;;;;;;;;5016078;28;20033;-70
2022/06/17 07:20:51;;;;;;;4.70;4.30;;;;;;;;;;5015810;28;20088;-70
2022/06/17 07:23:18;;;;;;;8.90;4.68;;;;;;;;;;5018014;28;20021;-69
2022/06/17 07:25:44;;;;;;;5.53;5.05;;;;;;;;;;5017717;28;20052;-73
2022/06/17 07:28:14;;;;;;;4.45;4.05;;;;;;;;;;5016436;28;20052;-72
2022/06/17 07:30:40;;;;;;;5.18;4.68;;;;;;;;;;5018437;28;20055;-74
2022/06/17 07:33:05;;;;;;;4.72;4.20;;;;;;;;;;5018004;28;20112;-71
2022/06/17 07:35:31;;;;;;;6.05;4.57;;;;;;;;;;5018318;28;20028;-69
2022/06/17 07:40:47;;;;;;;5.63;4.50;;;;;;;;;;5014612;28;20068;-69
2022/06/17 07:43:14;;;;;;;6.40;4.82;;;;;;;;;;5017067;28;20030;-71
2022/06/17 07:45:39;;;;;;;4.97;4.55;;;;;;;;;;5017582;28;20424;-70
2022/06/17 07:48:05;;;;;;;5.57;4.13;;;;;;;;;;5018259;28;20033;-74
2022/06/17 07:50:32;;;;;;;6.10;4.10;;;;;;;;;;5017038;28;20037;-70
2022/06/17 07:52:57;;;;;;;5.68;4.03;;;;;;;;;;5014036;28;20021;-69
2022/06/17 07:55:23;;;;;;;5.05;3.95;;;;;;;;;;5017026;28;20178;-69
2022/06/17 07:57:49;;;;;;;5.45;4.93;;;;;;;;;;5016089;28;20459;-70
2022/06/17 08:00:26;;;;;;;4.60;4.20;;;;;;;;;;5016683;28;20444;-68
2022/06/17 08:02:51;;;;;;;10.40;9.30;;;;;;;;;;5011247;28;20045;-74
2022/06/17 08:05:17;;;;;;;8.48;7.78;;;;;;;;;;5013972;28;20064;-70
2022/06/17 08:07:42;;;;;;;5.97;5.45;;;;;;;;;;5016017;28;20026;-70
2022/06/17 08:10:08;;;;;;;5.00;3.78;;;;;;;;;;5017807;28;20072;-73
2022/06/17 08:12:33;;;;;;;5.95;4.10;;;;;;;;;;5017303;28;20029;-69
2022/06/17 08:14:59;;;;;;;3.50;3.20;;;;;;;;;;5016927;28;20056;-68
2022/06/17 08:17:24;;;;;;;6.07;4.70;;;;;;;;;;5014332;28;20051;-70
2022/06/17 08:19:52;;;;;;;4.07;3.67;;;;;;;;;;5016572;28;20029;-70
2022/06/17 08:22:20;;;;;;;4.53;3.92;;;;;;;;;;5015777;28;20027;-68
2022/06/17 08:24:45;;;;;;;3.83;3.47;;;;;;;;;;5014301;28;20025;-69
2022/06/17 08:27:11;;;;;;;4.93;4.50;;;;;;;;;;5017048;28;20732;-70
2022/06/17 08:29:36;;;;;;;8.23;4.53;;;;;;;;;;5017118;28;20433;-71
2022/06/17 08:34:45;;;;;;;4.88;4.03;;;;;;;;;;5018511;28;20443;-69
2022/06/17 08:37:12;;;;;;;4.63;4.22;;;;;;;;;;5013919;28;20030;-73
2022/06/17 08:39:37;;;;;;;4.88;4.38;;;;;;;;;;5015183;28;20487;-72
2022/06/17 08:42:09;;;;;;;4.43;4.03;;;;;;;;;;5013009;28;20585;-70
2022/06/17 08:44:38;;;;;;;4.00;3.60;;;;;;;;;;5018265;28;20022;-70
2022/06/17 08:47:30;;;;;;;4.03;3.73;;;;;;;;;;5016292;28;20159;-70
2022/06/17 08:49:55;;;;;;;4.00;3.60;;;;;;;;;;5014317;28;20041;-69
2022/06/17 08:52:36;;;;;;;3.70;3.40;;;;;;;;;;5015758;28;21498;-71
2022/06/17 08:55:13;;;;;;;4.32;3.97;;;;;;;;;;5014923;28;20038;-73
2022/06/17 08:57:46;;;;;;;4.57;3.92;;;;;;;;;;5015567;28;20041;-70
2022/06/17 09:00:17;;;;;;;4.78;4.20;;;;;;;;;;5019398;28;20495;-72
2022/06/17 09:03:01;;;;;;;4.03;3.72;;;;;;;;;;5015341;28;20033;-70
2022/06/17 09:05:37;;;;;;;4.15;3.42;;;;;;;;;;5014853;28;20029;-73
2022/06/17 09:08:08;;;;;;;4.03;3.72;;;;;;;;;;5012273;28;20068;-71
2022/06/17 09:10:40;;;;;;;3.53;3.17;;;;;;;;;;5017816;28;20040;-74
2022/06/17 09:13:05;;;;;;;4.72;4.22;;;;;;;;;;5015565;28;20025;-70
2022/06/17 09:15:49;;;;;;;4.30;3.90;;;;;;;;;;5013088;28;20368;-69
2022/06/17 09:18:18;;;;;;;4.72;4.32;;;;;;;;;;5013665;28;20448;-72
2022/06/17 09:20:44;;;;;;;5.25;3.97;;;;;;;;;;5017639;28;20698;-70
2022/06/17 09:23:12;;;;;;;3.88;3.50;;;;;;;;;;5015391;28;20474;-70
2022/06/17 09:25:47;;;;;;;4.38;3.15;;;;;;;;;;5014125;28;20025;-71
2022/06/17 09:28:15;;;;;;;3.65;3.00;;;;;;;;;;5012816;28;20120;-71
2022/06/17 09:30:46;;;;;;;4.07;3.47;;;;;;;;;;5015517;28;20026;-70
2022/06/17 09:33:12;;;;;;;5.05;3.40;;;;;;;;;;5018661;28;20403;-70
2022/06/17 09:35:39;;;;;;;5.10;3.53;;;;;;;;;;5019100;28;20100;-69
2022/06/17 09:38:22;;;;;;;5.03;2.72;;;;;;;;;;5016869;28;20492;-74
2022/06/17 09:40:54;;;;;;;3.67;3.38;;;;;;;;;;5019384;28;20099;-70
2022/06/17 09:43:22;;;;;;;3.50;3.28;;;;;;;;;;5020506;28;20029;-74
2022/06/17 09:45:53;;;;;;;3.65;3.35;;;;;;;;;;5018695;28;20022;-69
2022/06/17 09:48:25;;;;;;;3.97;3.58;;;;;;;;;;5020395;28;20068;-70
2022/06/17 09:50:54;;;;;;;3.60;3.30;;;;;;;;;;5019306;28;20108;-70
2022/06/17 09:53:29;;;;;;;2.90;2.70;;;;;;;;;;5019450;28;20029;-70
2022/06/17 09:55:59;;;;;;;4.57;3.17;;;;;;;;;;5017368;28;20580;-70
2022/06/17 09:58:28;;;;;;;3.55;2.83;;;;;;;;;;5015990;28;20038;-72
2022/06/17 10:00:55;;;;;;;3.15;2.30;;;;;;;;;;5014458;28;20022;-70
2022/06/17 10:03:20;;;;;;;2.55;2.35;;;;;;;;;;5016534;28;20088;-72
2022/06/17 10:05:52;;;;;;;4.50;2.90;;;;;;;;;;5016657;28;21101;-71
2022/06/17 10:08:29;;;;;;;2.60;2.38;;;;;;;;;;5016172;28;20068;-71
2022/06/17 10:11:07;;;;;;;3.13;2.88;;;;;;;;;;5020420;28;20136;-70
2022/06/17 10:13:35;;;;;;;2.85;2.20;;;;;;;;;;5016166;28;20076;-72
2022/06/17 10:19:14;;;;;;;2.35;2.10;;;;;;;;;;5018151;28;20044;-70
2022/06/17 10:21:49;;;;;;;2.80;2.50;;;;;;;;;;5015300;28;20113;-74
2022/06/17 10:24:24;;;;;;;2.75;2.30;;;;;;;;;;5017520;28;20095;-70
2022/06/17 10:26:55;;;;;;;3.45;2.53;;;;;;;;;;5019647;28;20029;-70
2022/06/17 10:29:39;;;;;;;2.45;2.25;;;;;;;;;;5016715;28;20522;-68
2022/06/17 10:32:06;;;;;;;4.20;3.80;;;;;;;;;;5019898;28;20025;-72
2022/06/17 10:34:43;;;;;;;2.72;2.53;;;;;;;;;;5017037;28;20125;-69
2022/06/17 10:37:09;;;;;;;2.38;2.10;;;;;;;;;;5018662;28;20132;-72
2022/06/17 10:39:36;;;;;;;2.80;2.60;;;;;;;;;;5017489;28;20045;-71
2022/06/17 10:42:01;;;;;;;3.58;3.08;;;;;;;;;;5017438;28;20029;-70
2022/06/17 10:44:28;;;;;;;3.88;3.03;;;;;;;;;;5016580;28;20099;-69
2022/06/17 10:47:01;;;;;;;3.13;2.47;;;;;;;;;;5017437;28;20037;-70
2022/06/17 10:49:34;;;;;;;2.50;2.28;;;;;;;;;;5018543;28;20030;-69
2022/06/17 10:52:01;;;;;;;3.20;2.95;;;;;;;;;;5021090;28;20115;-69
2022/06/17 10:54:28;;;;;;;4.15;2.20;;;;;;;;;;5017415;28;20029;-70
2022/06/17 10:57:03;;;;;;;3.10;2.58;;;;;;;;;;5016830;28;20431;-73
2022/06/17 10:59:29;;;;;;;2.10;2.00;;;;;;;;;;5019299;28;20502;-71
2022/06/17 11:01:56;;;;;;;2.60;2.40;;;;;;;;;;5013816;28;20124;-73
2022/06/17 11:04:34;;;;;;;2.33;2.13;;;;;;;;;;5017338;28;20112;-70
2022/06/17 11:07:05;;;;;;;3.60;2.58;;;;;;;;;;5018854;28;20032;-72
2022/06/17 11:09:33;;;;;;;2.35;2.10;;;;;;;;;;5016287;28;20124;-69
2022/06/17 11:12:03;;;;;;;3.47;2.00;;;;;;;;;;5018460;28;20048;-71
2022/06/17 11:14:34;;;;;;;2.03;1.92;;;;;;;;;;5018301;28;20133;-72
2022/06/17 11:17:01;;;;;;;2.92;2.42;;;;;;;;;;5017976;28;20035;-73
2022/06/17 11:19:27;;;;;;;2.42;2.22;;;;;;;;;;5017406;28;20021;-69
2022/06/17 11:21:54;;;;;;;3.85;3.45;;;;;;;;;;5019434;28;20035;-70
2022/06/17 11:24:23;;;;;;;3.88;3.47;;;;;;;;;;5016051;28;20041;-70
2022/06/17 11:27:18;;;;;;;5.68;5.22;;;;;;;;;;5019453;28;20088;-70
2022/06/17 11:29:45;;;;;;;4.93;4.53;;;;;;;;;;4983297;28;20464;-72
2022/06/17 11:32:19;;;;;;;2.88;2.67;;;;;;;;;;5018626;28;20036;-70
2022/06/17 11:34:51;;;;;;;2.17;2.00;;;;;;;;;;5016850;28;20021;-73
2022/06/17 11:37:18;;;;;;;2.70;2.50;;;;;;;;;;5014911;28;20053;-69
2022/06/17 11:39:44;;;;;;;2.50;2.30;;;;;;;;;;5018525;28;20055;-69
2022/06/17 11:42:22;;;;;;;2.08;1.95;;;;;;;;;;5015715;28;20030;-73
2022/06/17 11:44:52;;;;;;;2.22;2.05;;;;;;;;;;5018789;28;20108;-73
2022/06/17 11:47:24;;;;;;;2.30;2.10;;;;;;;;;;5016152;28;20112;-70
2022/06/17 11:49:50;;;;;;;2.30;2.20;;;;;;;;;;5015969;28;20040;-69
2022/06/17 11:52:35;;;;;;;4.70;2.80;;;;;;;;;;5015347;28;21376;-73
2022/06/17 11:55:01;;;;;;;6.15;3.38;;;;;;;;;;5013524;28;20096;-70
2022/06/17 11:57:30;;;;;;;5.22;3.42;;;;;;;;;;5008262;28;20029;-71
2022/06/17 11:59:57;;;;;;;4.53;3.20;;;;;;;;;;5008802;28;20108;-70
2022/06/17 12:02:22;;;;;;;3.25;2.95;;;;;;;;;;5010669;28;20352;-70
2022/06/17 12:04:48;;;;;;;3.15;2.88;;;;;;;;;;5009810;28;20021;-75
2022/06/17 12:07:32;;;;;;;4.32;3.40;;;;;;;;;;5008854;28;20422;-70
2022/06/17 12:10:14;;;;;;;4.65;3.33;;;;;;;;;;5008342;28;20033;-70
2022/06/17 12:12:39;;;;;;;2.72;2.50;;;;;;;;;;5009274;28;20028;-72
2022/06/17 12:15:09;;;;;;;10.60;7.22;;;;;;;;;;5008643;28;20033;-68
2022/06/17 12:17:34;;;;;;;;;;;;;;;;;;5009095;28;20029;-72
2022/06/17 12:20:00;;;;;;;3.97;3.57;;;;;;;;;;5009089;28;19913;-71
2022/06/17 12:22:30;;;;;;;6.20;3.80;;;;;;;;;;5009130;28;20103;-67
2022/06/17 12:25:04;;;;;;;4.47;4.07;;;;;;;;;;5008919;28;20448;-72
2022/06/17 12:27:51;;;;;;;7.95;4.45;;;;;;;;;;5007959;28;20040;-71
2022/06/17 12:30:23;;;;;;;10.80;4.78;;;;;;;;;;5012031;28;20021;-71
2022/06/17 12:32:55;;;;;;;5.78;4.30;;;;;;;;;;5009001;28;20029;-70
2022/06/17 12:35:34;;;;;;;4.72;3.92;;;;;;;;;;5008140;28;20017;-69
2022/06/17 12:37:59;;;;;;;6.93;4.40;;;;;;;;;;5007516;28;20502;-72
2022/06/17 12:40:37;;;;;;;5.13;4.45;;;;;;;;;;5007517;28;20062;-70
2022/06/17 12:43:09;;;;;;;4.88;4.30;;;;;;;;;;5016745;28;21129;-73
2022/06/17 12:45:52;;;;;;;6.65;5.20;;;;;;;;;;5017779;28;20029;-69
2022/06/17 12:48:50;;;;;;;7.28;5.47;;;;;;;;;;5014488;28;20033;-68
2022/06/17 12:54:21;;;;;;;7.63;5.55;;;;;;;;;;5017599;28;20025;-69
2022/06/17 12:56:53;;;;;;;6.90;5.20;;;;;;;;;;5015710;28;20013;-69
2022/06/17 12:59:51;;;;;;;4.28;3.65;;;;;;;;;;5012314;28;20065;-71
2022/06/17 13:02:22;;;;;;;5.90;3.45;;;;;;;;;;4980723;28;20052;-67
2022/06/17 13:05:00;;;;;;;4.47;3.30;;;;;;;;;;5017273;28;20487;-68
2022/06/17 13:07:37;;;;;;;3.45;3.15;;;;;;;;;;5029158;28;20037;-67
2022/06/17 13:12:55;;;;;;;4.22;3.33;;;;;;;;;;5017205;28;20048;-68
2022/06/17 13:15:23;;;;;;;3.70;3.38;;;;;;;;;;5010272;28;20026;-73
2022/06/17 13:17:52;;;;;;;4.18;3.60;;;;;;;;;;5010533;28;21112;-69
2022/06/17 13:20:30;;;;;;;5.28;3.38;;;;;;;;;;5009783;28;20397;-69
2022/06/17 13:22:55;;;;;;;3.67;2.90;;;;;;;;;;5010441;28;20030;-74
2022/06/17 13:25:25;;;;;;;4.25;3.15;;;;;;;;;;5009843;28;20036;-69
2022/06/17 13:28:00;;;;;;;3.83;3.40;;;;;;;;;;5010961;28;20082;-68
2022/06/17 13:30:38;;;;;;;3.50;3.20;;;;;;;;;;5011801;28;20033;-69
2022/06/17 13:33:22;;;;;;;4.63;3.40;;;;;;;;;;5012449;28;20112;-66
2022/06/17 13:35:55;;;;;;;3.30;2.42;;;;;;;;;;5017347;28;20139;-70
2022/06/17 13:38:23;;;;;;;4.80;3.00;;;;;;;;;;5013056;28;20033;-76
2022/06/17 13:40:56;;;;;;;3.47;2.92;;;;;;;;;;5012527;28;20049;-70
2022/06/17 13:43:23;;;;;;;3.22;2.92;;;;;;;;;;5010728;28;20029;-77
2022/06/17 13:45:52;;;;;;;3.63;3.28;;;;;;;;;;5014656;28;20029;-74
2022/06/17 13:48:17;;;;;;;3.05;2.63;;;;;;;;;;5015440;28;20037;-69
2022/06/17 13:51:01;;;;;;;3.97;2.90;;;;;;;;;;5019106;28;20032;-70
2022/06/17 13:53:29;;;;;;;5.30;2.63;;;;;;;;;;5015972;28;20451;-70
2022/06/17 13:56:04;;;;;;;3.22;2.42;;;;;;;;;;5019955;28;20349;-76
2022/06/17 13:58:48;;;;;;;2.70;2.40;;;;;;;;;;5019411;28;20033;-71
2022/06/17 14:01:13;;;;;;;2.60;2.40;;;;;;;;;;5020738;28;20125;-74
2022/06/17 14:03:54;;;;;;;3.13;2.92;;;;;;;;;;5016868;28;20108;-71
2022/06/17 14:06:20;;;;;;;3.30;2.92;;;;;;;;;;5011456;28;20029;-73
2022/06/17 14:08:47;;;;;;;3.05;2.85;;;;;;;;;;5011542;28;20041;-70
2022/06/17 14:11:32;;;;;;;3.63;2.53;;;;;;;;;;5009797;28;20357;-74
2022/06/17 14:14:15;;;;;;;3.00;2.80;;;;;;;;;;5009577;28;20459;-72
2022/06/17 14:16:42;;;;;;;3.08;2.88;;;;;;;;;;5010760;28;20037;-70
2022/06/17 14:19:14;;;;;;;3.00;2.80;;;;;;;;;;5008985;28;20037;-73
2022/06/17 14:21:43;;;;;;;3.47;2.58;;;;;;;;;;5010801;28;20025;-67
2022/06/17 14:24:10;;;;;;;2.42;2.22;;;;;;;;;;5009474;28;20360;-74
2022/06/17 14:26:47;;;;;;;5.38;3.10;;;;;;;;;;5008364;28;20041;-70
2022/06/17 14:29:14;;;;;;;4.57;2.85;;;;;;;;;;5009595;28;20021;-71
2022/06/17 14:31:40;;;;;;;3.78;3.28;;;;;;;;;;5008685;28;20029;-67
2022/06/17 14:34:12;;;;;;;4.28;3.58;;;;;;;;;;5008399;28;20028;-71
2022/06/17 14:36:41;;;;;;;7.65;5.30;;;;;;;;;;5007921;28;20581;-69
2022/06/17 14:39:11;;;;;;;5.10;4.23;;;;;;;;;;5006534;28;20779;-77
2022/06/17 14:44:24;;;;;;;3.60;3.30;;;;;;;;;;5009032;28;20075;-74
2022/06/17 14:47:08;;;;;;;4.57;3.80;;;;;;;;;;5008920;28;20268;-68
2022/06/17 14:49:45;;;;;;;5.43;3.83;;;;;;;;;;5008236;28;20018;-73
2022/06/17 14:52:27;;;;;;;7.20;5.20;;;;;;;;;;5009462;28;20017;-71
2022/06/17 14:54:57;;;;;;;5.10;4.65;;;;;;;;;;5005601;28;20045;-70
2022/06/17 14:57:23;;;;;;;18.20;12.80;;;;;;;;;;5007471;28;20034;-69
2022/06/17 14:59:49;;;;;;;15.73;10.15;;;;;;;;;;5009619;28;20041;-70
2022/06/17 15:02:14;;;;;;;9.45;7.57;;;;;;;;;;5007645;28;20106;-72
2022/06/17 15:04:41;;;;;;;7.97;5.13;;;;;;;;;;5008044;28;20029;-69
2022/06/17 15:07:14;;;;;;;5.93;5.20;;;;;;;;;;5008309;28;20036;-74
2022/06/17 15:09:39;;;;;;;4.13;3.72;;;;;;;;;;5009302;28;20029;-74
2022/06/17 15:12:05;;;;;;;5.25;3.40;;;;;;;;;;5008600;28;20040;-69
2022/06/17 15:14:32;;;;;;;4.10;3.70;;;;;;;;;;5009391;28;20026;-70
2022/06/17 15:17:13;;;;;;;4.68;3.55;;;;;;;;;;5008950;28;20029;-69
2022/06/17 15:19:41;;;;;;;3.67;3.33;;;;;;;;;;5009243;28;20036;-71